sensor_id;sensor_type;location;lat;lon;timestamp;P1;durP1;ratioP1;P2;durP2;ratioP2
60464;SDS011;46314;52.392;9.758;2024-02-14T00:00:09;2.10;;;1.60;;
60464;SDS011;46314;52.392;9.758;2024-02-14T00:02:37;3.92;;;2.05;;
60464;SDS011;46314;52.392;9.758;2024-02-14T00:05:04;3.35;;;1.90;;
60464;SDS011;46314;52.392;9.758;2024-02-14T00:07:32;5.18;;;1.98;;
60464;SDS011;46314;52.392;9.758;2024-02-14T00:09:59;2.97;;;1.58;;
60464;SDS011;46314;52.392;9.758;2024-02-14T00:12:26;4.03;;;2.25;;
60464;SDS011;46314;52.392;9.758;2024-02-14T00:14:52;3.58;;;1.98;;
60464;SDS011;46314;52.392;9.758;2024-02-14T00:17:19;3.15;;;2.10;;
60464;SDS011;46314;52.392;9.758;2024-02-14T00:19:46;3.83;;;1.90;;
60464;SDS011;46314;52.392;9.758;2024-02-14T00:22:12;4.18;;;1.92;;
60464;SDS011;46314;52.392;9.758;2024-02-14T00:24:40;4.88;;;1.80;;
60464;SDS011;46314;52.392;9.758;2024-02-14T00:27:06;3.95;;;1.90;;
60464;SDS011;46314;52.392;9.758;2024-02-14T00:29:33;3.38;;;1.92;;
60464;SDS011;46314;52.392;9.758;2024-02-14T00:31:59;4.65;;;2.17;;
60464;SDS011;46314;52.392;9.758;2024-02-14T00:34:26;5.65;;;1.60;;
60464;SDS011;46314;52.392;9.758;2024-02-14T00:36:52;4.72;;;1.92;;
60464;SDS011;46314;52.392;9.758;2024-02-14T00:39:19;2.72;;;1.85;;
60464;SDS011;46314;52.392;9.758;2024-02-14T00:41:47;3.53;;;1.80;;
60464;SDS011;46314;52.392;9.758;2024-02-14T00:44:13;3.05;;;1.95;;
60464;SDS011;46314;52.392;9.758;2024-02-14T00:46:40;2.83;;;1.73;;
60464;SDS011;46314;52.392;9.758;2024-02-14T00:49:06;3.78;;;2.03;;
60464;SDS011;46314;52.392;9.758;2024-02-14T00:51:33;2.20;;;1.73;;
60464;SDS011;46314;52.392;9.758;2024-02-14T00:54:00;4.60;;;1.85;;
60464;SDS011;46314;52.392;9.758;2024-02-14T00:56:26;3.38;;;1.92;;
60464;SDS011;46314;52.392;9.758;2024-02-14T00:58:54;3.58;;;1.70;;
60464;SDS011;46314;52.392;9.758;2024-02-14T01:01:20;2.60;;;1.80;;
60464;SDS011;46314;52.392;9.758;2024-02-14T01:03:47;4.15;;;1.73;;
60464;SDS011;46314;52.392;9.758;2024-02-14T01:06:14;3.33;;;2.10;;
60464;SDS011;46314;52.392;9.758;2024-02-14T01:08:41;2.70;;;1.98;;
60464;SDS011;46314;52.392;9.758;2024-02-14T01:11:07;4.95;;;2.10;;
60464;SDS011;46314;52.392;9.758;2024-02-14T01:13:34;6.72;;;2.45;;
60464;SDS011;46314;52.392;9.758;2024-02-14T01:16:02;3.83;;;2.17;;
60464;SDS011;46314;52.392;9.758;2024-02-14T01:18:28;3.70;;;2.10;;
60464;SDS011;46314;52.392;9.758;2024-02-14T01:20:55;3.45;;;1.90;;
60464;SDS011;46314;52.392;9.758;2024-02-14T01:23:21;4.53;;;2.10;;
60464;SDS011;46314;52.392;9.758;2024-02-14T01:25:48;6.50;;;2.67;;
60464;SDS011;46314;52.392;9.758;2024-02-14T01:28:14;2.78;;;1.98;;
60464;SDS011;46314;52.392;9.758;2024-02-14T01:30:41;3.63;;;1.90;;
60464;SDS011;46314;52.392;9.758;2024-02-14T01:33:09;5.25;;;2.58;;
60464;SDS011;46314;52.392;9.758;2024-02-14T01:35:35;3.47;;;1.92;;
60464;SDS011;46314;52.392;9.758;2024-02-14T01:38:02;4.80;;;1.95;;
60464;SDS011;46314;52.392;9.758;2024-02-14T01:40:29;2.88;;;2.40;;
60464;SDS011;46314;52.392;9.758;2024-02-14T01:42:55;3.92;;;2.10;;
60464;SDS011;46314;52.392;9.758;2024-02-14T01:45:22;5.57;;;3.05;;
60464;SDS011;46314;52.392;9.758;2024-02-14T01:47:49;5.45;;;2.30;;
60464;SDS011;46314;52.392;9.758;2024-02-14T01:50:18;4.65;;;1.90;;
60464;SDS011;46314;52.392;9.758;2024-02-14T01:52:45;2.83;;;2.28;;
60464;SDS011;46314;52.392;9.758;2024-02-14T01:55:12;3.10;;;1.98;;
60464;SDS011;46314;52.392;9.758;2024-02-14T01:57:39;4.47;;;2.10;;
60464;SDS011;46314;52.392;9.758;2024-02-14T02:00:06;4.95;;;1.88;;
60464;SDS011;46314;52.392;9.758;2024-02-14T02:02:33;4.13;;;2.30;;
60464;SDS011;46314;52.392;9.758;2024-02-14T02:05:00;3.97;;;2.20;;
60464;SDS011;46314;52.392;9.758;2024-02-14T02:07:29;6.10;;;2.20;;
60464;SDS011;46314;52.392;9.758;2024-02-14T02:09:58;7.03;;;2.97;;
60464;SDS011;46314;52.392;9.758;2024-02-14T02:12:24;3.28;;;2.17;;
60464;SDS011;46314;52.392;9.758;2024-02-14T02:14:51;7.50;;;2.75;;
60464;SDS011;46314;52.392;9.758;2024-02-14T02:17:17;6.43;;;2.38;;
60464;SDS011;46314;52.392;9.758;2024-02-14T02:19:44;7.28;;;2.88;;
60464;SDS011;46314;52.392;9.758;2024-02-14T02:22:10;4.75;;;2.28;;
60464;SDS011;46314;52.392;9.758;2024-02-14T02:24:38;7.07;;;2.60;;
60464;SDS011;46314;52.392;9.758;2024-02-14T02:27:05;3.85;;;2.30;;
60464;SDS011;46314;52.392;9.758;2024-02-14T02:29:31;3.90;;;2.63;;
60464;SDS011;46314;52.392;9.758;2024-02-14T02:31:58;3.15;;;2.58;;
60464;SDS011;46314;52.392;9.758;2024-02-14T02:34:25;3.95;;;2.50;;
60464;SDS011;46314;52.392;9.758;2024-02-14T02:36:52;8.57;;;3.28;;
60464;SDS011;46314;52.392;9.758;2024-02-14T02:39:18;5.68;;;2.83;;
60464;SDS011;46314;52.392;9.758;2024-02-14T02:41:46;5.88;;;3.28;;
60464;SDS011;46314;52.392;9.758;2024-02-14T02:44:13;6.10;;;3.35;;
60464;SDS011;46314;52.392;9.758;2024-02-14T02:46:39;9.73;;;2.97;;
60464;SDS011;46314;52.392;9.758;2024-02-14T02:49:06;6.60;;;2.88;;
60464;SDS011;46314;52.392;9.758;2024-02-14T02:51:32;5.38;;;2.88;;
60464;SDS011;46314;52.392;9.758;2024-02-14T02:53:59;7.05;;;3.78;;
60464;SDS011;46314;52.392;9.758;2024-02-14T02:56:25;6.45;;;3.60;;
60464;SDS011;46314;52.392;9.758;2024-02-14T02:58:53;7.68;;;3.55;;
60464;SDS011;46314;52.392;9.758;2024-02-14T03:01:20;7.00;;;3.78;;
60464;SDS011;46314;52.392;9.758;2024-02-14T03:03:46;4.75;;;3.00;;
60464;SDS011;46314;52.392;9.758;2024-02-14T03:06:13;5.78;;;3.22;;
60464;SDS011;46314;52.392;9.758;2024-02-14T03:08:40;6.85;;;3.97;;
60464;SDS011;46314;52.392;9.758;2024-02-14T03:11:06;5.68;;;3.70;;
60464;SDS011;46314;52.392;9.758;2024-02-14T03:13:33;10.43;;;4.50;;
60464;SDS011;46314;52.392;9.758;2024-02-14T03:16:01;7.28;;;3.47;;
60464;SDS011;46314;52.392;9.758;2024-02-14T03:18:27;9.15;;;4.22;;
60464;SDS011;46314;52.392;9.758;2024-02-14T03:20:54;6.30;;;3.30;;
60464;SDS011;46314;52.392;9.758;2024-02-14T03:23:21;7.15;;;3.55;;
60464;SDS011;46314;52.392;9.758;2024-02-14T03:25:47;5.25;;;3.40;;
60464;SDS011;46314;52.392;9.758;2024-02-14T03:28:14;3.88;;;3.25;;
60464;SDS011;46314;52.392;9.758;2024-02-14T03:30:40;7.65;;;3.33;;
60464;SDS011;46314;52.392;9.758;2024-02-14T03:33:08;6.15;;;4.00;;
60464;SDS011;46314;52.392;9.758;2024-02-14T03:35:35;5.65;;;3.60;;
60464;SDS011;46314;52.392;9.758;2024-02-14T03:38:01;6.75;;;3.92;;
60464;SDS011;46314;52.392;9.758;2024-02-14T03:40:28;5.07;;;3.40;;
60464;SDS011;46314;52.392;9.758;2024-02-14T03:42:55;6.20;;;4.10;;
60464;SDS011;46314;52.392;9.758;2024-02-14T03:45:22;7.13;;;3.58;;
60464;SDS011;46314;52.392;9.758;2024-02-14T03:47:49;6.43;;;3.35;;
60464;SDS011;46314;52.392;9.758;2024-02-14T03:50:17;8.00;;;3.83;;
60464;SDS011;46314;52.392;9.758;2024-02-14T03:52:43;6.30;;;3.70;;
60464;SDS011;46314;52.392;9.758;2024-02-14T03:55:10;8.52;;;4.07;;
60464;SDS011;46314;52.392;9.758;2024-02-14T03:57:37;5.07;;;3.55;;
60464;SDS011;46314;52.392;9.758;2024-02-14T04:00:03;5.63;;;3.85;;
60464;SDS011;46314;52.392;9.758;2024-02-14T04:02:31;5.75;;;3.63;;
60464;SDS011;46314;52.392;9.758;2024-02-14T04:04:57;6.90;;;3.33;;
60464;SDS011;46314;52.392;9.758;2024-02-14T04:07:25;6.40;;;3.55;;
60464;SDS011;46314;52.392;9.758;2024-02-14T04:09:52;6.63;;;3.45;;
60464;SDS011;46314;52.392;9.758;2024-02-14T04:12:18;6.80;;;3.88;;
60464;SDS011;46314;52.392;9.758;2024-02-14T04:14:45;6.75;;;3.65;;
60464;SDS011;46314;52.392;9.758;2024-02-14T04:17:11;5.78;;;3.25;;
60464;SDS011;46314;52.392;9.758;2024-02-14T04:19:38;5.65;;;3.60;;
60464;SDS011;46314;52.392;9.758;2024-02-14T04:22:04;5.88;;;3.17;;
60464;SDS011;46314;52.392;9.758;2024-02-14T04:24:34;5.57;;;3.70;;
60464;SDS011;46314;52.392;9.758;2024-02-14T04:27:00;4.85;;;3.20;;
60464;SDS011;46314;52.392;9.758;2024-02-14T04:29:27;6.07;;;3.10;;
60464;SDS011;46314;52.392;9.758;2024-02-14T04:31:54;5.72;;;3.30;;
60464;SDS011;46314;52.392;9.758;2024-02-14T04:34:20;5.75;;;3.33;;
60464;SDS011;46314;52.392;9.758;2024-02-14T04:36:47;7.15;;;3.55;;
60464;SDS011;46314;52.392;9.758;2024-02-14T04:39:13;6.70;;;3.65;;
60464;SDS011;46314;52.392;9.758;2024-02-14T04:41:41;8.90;;;3.50;;
60464;SDS011;46314;52.392;9.758;2024-02-14T04:44:23;6.50;;;3.42;;
60464;SDS011;46314;52.392;9.758;2024-02-14T04:46:49;5.38;;;3.55;;
60464;SDS011;46314;52.392;9.758;2024-02-14T04:49:15;6.15;;;3.38;;
60464;SDS011;46314;52.392;9.758;2024-02-14T04:51:42;7.18;;;3.88;;
60464;SDS011;46314;52.392;9.758;2024-02-14T04:54:09;6.57;;;3.33;;
60464;SDS011;46314;52.392;9.758;2024-02-14T04:56:35;4.47;;;3.15;;
60464;SDS011;46314;52.392;9.758;2024-02-14T04:59:03;4.97;;;3.55;;
60464;SDS011;46314;52.392;9.758;2024-02-14T05:01:30;8.05;;;4.30;;
60464;SDS011;46314;52.392;9.758;2024-02-14T05:03:56;6.13;;;3.78;;
60464;SDS011;46314;52.392;9.758;2024-02-14T05:06:23;9.00;;;4.38;;
60464;SDS011;46314;52.392;9.758;2024-02-14T05:08:49;7.10;;;4.10;;
60464;SDS011;46314;52.392;9.758;2024-02-14T05:11:16;7.53;;;3.28;;
60464;SDS011;46314;52.392;9.758;2024-02-14T05:13:42;5.68;;;3.10;;
60464;SDS011;46314;52.392;9.758;2024-02-14T05:16:10;7.60;;;3.92;;
60464;SDS011;46314;52.392;9.758;2024-02-14T05:18:37;5.63;;;3.38;;
60464;SDS011;46314;52.392;9.758;2024-02-14T05:21:05;5.40;;;3.53;;
60464;SDS011;46314;52.392;9.758;2024-02-14T05:23:32;7.43;;;3.58;;
60464;SDS011;46314;52.392;9.758;2024-02-14T05:25:58;7.68;;;4.20;;
60464;SDS011;46314;52.392;9.758;2024-02-14T05:28:25;6.50;;;4.32;;
60464;SDS011;46314;52.392;9.758;2024-02-14T05:30:51;4.03;;;3.13;;
60464;SDS011;46314;52.392;9.758;2024-02-14T05:33:19;5.93;;;3.50;;
60464;SDS011;46314;52.392;9.758;2024-02-14T05:35:46;7.43;;;4.63;;
60464;SDS011;46314;52.392;9.758;2024-02-14T05:38:13;6.40;;;3.88;;
60464;SDS011;46314;52.392;9.758;2024-02-14T05:40:40;5.65;;;3.38;;
60464;SDS011;46314;52.392;9.758;2024-02-14T05:43:06;4.85;;;3.50;;
60464;SDS011;46314;52.392;9.758;2024-02-14T05:45:33;5.25;;;3.28;;
60464;SDS011;46314;52.392;9.758;2024-02-14T05:47:59;7.80;;;4.03;;
60464;SDS011;46314;52.392;9.758;2024-02-14T05:50:27;5.55;;;3.25;;
60464;SDS011;46314;52.392;9.758;2024-02-14T05:52:54;7.32;;;3.17;;
60464;SDS011;46314;52.392;9.758;2024-02-14T05:55:20;6.20;;;3.25;;
60464;SDS011;46314;52.392;9.758;2024-02-14T05:57:47;6.63;;;3.38;;
60464;SDS011;46314;52.392;9.758;2024-02-14T06:00:13;5.93;;;3.47;;
60464;SDS011;46314;52.392;9.758;2024-02-14T06:02:40;4.35;;;3.38;;
60464;SDS011;46314;52.392;9.758;2024-02-14T06:05:07;5.47;;;3.20;;
60464;SDS011;46314;52.392;9.758;2024-02-14T06:07:36;5.35;;;2.97;;
60464;SDS011;46314;52.392;9.758;2024-02-14T06:10:02;4.25;;;3.15;;
60464;SDS011;46314;52.392;9.758;2024-02-14T06:12:29;5.20;;;3.42;;
60464;SDS011;46314;52.392;9.758;2024-02-14T06:14:55;6.32;;;3.72;;
60464;SDS011;46314;52.392;9.758;2024-02-14T06:17:22;5.78;;;3.58;;
60464;SDS011;46314;52.392;9.758;2024-02-14T06:19:49;4.68;;;2.90;;
60464;SDS011;46314;52.392;9.758;2024-02-14T06:22:15;5.22;;;3.22;;
60464;SDS011;46314;52.392;9.758;2024-02-14T06:24:43;5.22;;;3.60;;
60464;SDS011;46314;52.392;9.758;2024-02-14T06:27:10;6.78;;;2.95;;
60464;SDS011;46314;52.392;9.758;2024-02-14T06:29:37;5.13;;;3.40;;
60464;SDS011;46314;52.392;9.758;2024-02-14T06:32:04;5.35;;;2.88;;
60464;SDS011;46314;52.392;9.758;2024-02-14T06:34:31;5.00;;;3.08;;
60464;SDS011;46314;52.392;9.758;2024-02-14T06:36:58;5.80;;;3.30;;
60464;SDS011;46314;52.392;9.758;2024-02-14T06:39:24;3.45;;;2.80;;
60464;SDS011;46314;52.392;9.758;2024-02-14T06:41:52;7.30;;;3.45;;
60464;SDS011;46314;52.392;9.758;2024-02-14T06:44:18;4.47;;;3.10;;
60464;SDS011;46314;52.392;9.758;2024-02-14T06:46:45;4.38;;;2.60;;
60464;SDS011;46314;52.392;9.758;2024-02-14T06:49:11;6.95;;;3.63;;
60464;SDS011;46314;52.392;9.758;2024-02-14T06:51:38;2.90;;;2.63;;
60464;SDS011;46314;52.392;9.758;2024-02-14T06:54:04;5.32;;;3.55;;
60464;SDS011;46314;52.392;9.758;2024-02-14T06:56:31;6.28;;;3.00;;
60464;SDS011;46314;52.392;9.758;2024-02-14T06:58:59;4.85;;;3.28;;
60464;SDS011;46314;52.392;9.758;2024-02-14T07:01:25;4.40;;;3.35;;
60464;SDS011;46314;52.392;9.758;2024-02-14T07:03:55;4.43;;;2.60;;
60464;SDS011;46314;52.392;9.758;2024-02-14T07:06:21;5.32;;;3.13;;
60464;SDS011;46314;52.392;9.758;2024-02-14T07:08:48;4.53;;;3.20;;
60464;SDS011;46314;52.392;9.758;2024-02-14T07:11:15;5.05;;;3.08;;
60464;SDS011;46314;52.392;9.758;2024-02-14T07:13:42;5.85;;;3.03;;
60464;SDS011;46314;52.392;9.758;2024-02-14T07:16:10;5.68;;;2.75;;
60464;SDS011;46314;52.392;9.758;2024-02-14T07:18:37;5.25;;;2.63;;
60464;SDS011;46314;52.392;9.758;2024-02-14T07:21:04;4.03;;;2.78;;
60464;SDS011;46314;52.392;9.758;2024-02-14T07:23:31;3.90;;;2.63;;
60464;SDS011;46314;52.392;9.758;2024-02-14T07:25:57;7.25;;;3.20;;
60464;SDS011;46314;52.392;9.758;2024-02-14T07:28:24;3.95;;;2.70;;
60464;SDS011;46314;52.392;9.758;2024-02-14T07:30:50;3.15;;;2.67;;
60464;SDS011;46314;52.392;9.758;2024-02-14T07:33:18;6.00;;;3.30;;
60464;SDS011;46314;52.392;9.758;2024-02-14T07:35:45;4.28;;;2.65;;
60464;SDS011;46314;52.392;9.758;2024-02-14T07:38:12;3.72;;;2.30;;
60464;SDS011;46314;52.392;9.758;2024-02-14T07:40:38;2.97;;;2.33;;
60464;SDS011;46314;52.392;9.758;2024-02-14T07:43:05;4.43;;;2.78;;
60464;SDS011;46314;52.392;9.758;2024-02-14T07:45:31;4.43;;;2.42;;
60464;SDS011;46314;52.392;9.758;2024-02-14T07:47:58;3.38;;;2.47;;
60464;SDS011;46314;52.392;9.758;2024-02-14T07:50:25;5.95;;;3.30;;
60464;SDS011;46314;52.392;9.758;2024-02-14T07:52:52;3.15;;;2.35;;
60464;SDS011;46314;52.392;9.758;2024-02-14T07:55:18;3.97;;;2.88;;
60464;SDS011;46314;52.392;9.758;2024-02-14T07:57:45;3.70;;;2.70;;
60464;SDS011;46314;52.392;9.758;2024-02-14T08:00:12;3.08;;;2.63;;
60464;SDS011;46314;52.392;9.758;2024-02-14T08:02:39;5.28;;;2.85;;
60464;SDS011;46314;52.392;9.758;2024-02-14T08:05:06;3.72;;;2.90;;
60464;SDS011;46314;52.392;9.758;2024-02-14T08:07:34;2.58;;;2.38;;
60464;SDS011;46314;52.392;9.758;2024-02-14T08:10:00;3.58;;;2.50;;
60464;SDS011;46314;52.392;9.758;2024-02-14T08:12:26;3.53;;;2.30;;
60464;SDS011;46314;52.392;9.758;2024-02-14T08:14:53;3.88;;;2.92;;
60464;SDS011;46314;52.392;9.758;2024-02-14T08:17:19;4.80;;;2.33;;
60464;SDS011;46314;52.392;9.758;2024-02-14T08:19:46;4.80;;;2.33;;
60464;SDS011;46314;52.392;9.758;2024-02-14T08:22:12;2.95;;;2.53;;
60464;SDS011;46314;52.392;9.758;2024-02-14T08:24:40;5.55;;;3.55;;
60464;SDS011;46314;52.392;9.758;2024-02-14T08:27:07;4.03;;;2.85;;
60464;SDS011;46314;52.392;9.758;2024-02-14T08:29:33;2.92;;;2.13;;
60464;SDS011;46314;52.392;9.758;2024-02-14T08:32:00;3.03;;;2.15;;
60464;SDS011;46314;52.392;9.758;2024-02-14T08:34:26;2.50;;;2.20;;
60464;SDS011;46314;52.392;9.758;2024-02-14T08:36:53;2.53;;;1.92;;
60464;SDS011;46314;52.392;9.758;2024-02-14T08:39:19;3.38;;;1.63;;
60464;SDS011;46314;52.392;9.758;2024-02-14T08:41:47;5.07;;;1.73;;
60464;SDS011;46314;52.392;9.758;2024-02-14T08:44:13;2.78;;;1.83;;
60464;SDS011;46314;52.392;9.758;2024-02-14T08:46:40;1.88;;;1.30;;
60464;SDS011;46314;52.392;9.758;2024-02-14T08:49:06;2.65;;;1.55;;
60464;SDS011;46314;52.392;9.758;2024-02-14T08:51:36;1.70;;;1.48;;
60464;SDS011;46314;52.392;9.758;2024-02-14T08:54:03;4.60;;;1.55;;
60464;SDS011;46314;52.392;9.758;2024-02-14T08:56:30;4.22;;;1.92;;
60464;SDS011;46314;52.392;9.758;2024-02-14T08:58:58;1.90;;;1.20;;
60464;SDS011;46314;52.392;9.758;2024-02-14T09:01:25;1.70;;;1.40;;
60464;SDS011;46314;52.392;9.758;2024-02-14T09:03:52;2.50;;;1.65;;
60464;SDS011;46314;52.392;9.758;2024-02-14T09:06:18;1.92;;;1.60;;
60464;SDS011;46314;52.392;9.758;2024-02-14T09:08:45;2.17;;;1.52;;
60464;SDS011;46314;52.392;9.758;2024-02-14T09:11:12;2.15;;;1.42;;
60464;SDS011;46314;52.392;9.758;2024-02-14T09:13:39;2.30;;;1.60;;
60464;SDS011;46314;52.392;9.758;2024-02-14T09:16:07;2.75;;;2.00;;
60464;SDS011;46314;52.392;9.758;2024-02-14T09:18:34;2.65;;;1.90;;
60464;SDS011;46314;52.392;9.758;2024-02-14T09:21:00;2.70;;;1.88;;
60464;SDS011;46314;52.392;9.758;2024-02-14T09:23:27;5.15;;;2.63;;
60464;SDS011;46314;52.392;9.758;2024-02-14T09:25:54;2.38;;;2.10;;
60464;SDS011;46314;52.392;9.758;2024-02-14T09:28:20;3.15;;;2.85;;
60464;SDS011;46314;52.392;9.758;2024-02-14T09:30:46;4.38;;;3.78;;
60464;SDS011;46314;52.392;9.758;2024-02-14T09:33:15;7.10;;;4.25;;
60464;SDS011;46314;52.392;9.758;2024-02-14T09:35:41;4.70;;;4.20;;
60464;SDS011;46314;52.392;9.758;2024-02-14T09:38:08;5.18;;;4.65;;
60464;SDS011;46314;52.392;9.758;2024-02-14T09:40:34;8.80;;;5.32;;
60464;SDS011;46314;52.392;9.758;2024-02-14T09:43:01;5.95;;;5.38;;
60464;SDS011;46314;52.392;9.758;2024-02-14T09:45:31;5.95;;;5.30;;
60464;SDS011;46314;52.392;9.758;2024-02-14T09:47:58;5.57;;;5.07;;
60464;SDS011;46314;52.392;9.758;2024-02-14T09:50:26;6.35;;;5.75;;
60464;SDS011;46314;52.392;9.758;2024-02-14T09:52:55;6.32;;;5.47;;
60464;SDS011;46314;52.392;9.758;2024-02-14T09:55:22;9.07;;;6.22;;
60464;SDS011;46314;52.392;9.758;2024-02-14T09:57:49;5.25;;;4.75;;
60464;SDS011;46314;52.392;9.758;2024-02-14T10:00:16;6.97;;;5.93;;
60464;SDS011;46314;52.392;9.758;2024-02-14T10:02:43;5.97;;;5.40;;
60464;SDS011;46314;52.392;9.758;2024-02-14T10:05:09;7.07;;;6.13;;
60464;SDS011;46314;52.392;9.758;2024-02-14T10:07:41;5.68;;;5.20;;
60464;SDS011;46314;52.392;9.758;2024-02-14T10:10:07;7.22;;;6.05;;
60464;SDS011;46314;52.392;9.758;2024-02-14T10:12:34;7.20;;;5.80;;
60464;SDS011;46314;52.392;9.758;2024-02-14T10:15:01;6.10;;;5.50;;
60464;SDS011;46314;52.392;9.758;2024-02-14T10:17:27;6.55;;;5.95;;
60464;SDS011;46314;52.392;9.758;2024-02-14T10:19:54;6.63;;;5.97;;
60464;SDS011;46314;52.392;9.758;2024-02-14T10:22:22;6.65;;;5.90;;
60464;SDS011;46314;52.392;9.758;2024-02-14T10:24:49;7.78;;;5.43;;
60464;SDS011;46314;52.392;9.758;2024-02-14T10:27:16;8.50;;;6.20;;
60464;SDS011;46314;52.392;9.758;2024-02-14T10:29:43;6.43;;;5.30;;
60464;SDS011;46314;52.392;9.758;2024-02-14T10:32:09;5.95;;;5.35;;
60464;SDS011;46314;52.392;9.758;2024-02-14T10:34:36;6.43;;;5.78;;
60464;SDS011;46314;52.392;9.758;2024-02-14T10:37:04;4.85;;;4.45;;
60464;SDS011;46314;52.392;9.758;2024-02-14T10:39:31;8.73;;;5.30;;
60464;SDS011;46314;52.392;9.758;2024-02-14T10:42:00;6.10;;;5.45;;
60464;SDS011;46314;52.392;9.758;2024-02-14T10:44:26;7.78;;;5.75;;
60464;SDS011;46314;52.392;9.758;2024-02-14T10:46:53;4.60;;;4.20;;
60464;SDS011;46314;52.392;9.758;2024-02-14T10:49:24;5.40;;;4.95;;
60464;SDS011;46314;52.392;9.758;2024-02-14T10:51:54;6.47;;;5.53;;
60464;SDS011;46314;52.392;9.758;2024-02-14T10:54:24;5.45;;;4.65;;
60464;SDS011;46314;52.392;9.758;2024-02-14T10:56:51;6.00;;;4.82;;
60464;SDS011;46314;52.392;9.758;2024-02-14T10:59:21;4.53;;;4.13;;
60464;SDS011;46314;52.392;9.758;2024-02-14T11:01:51;3.97;;;3.67;;
60464;SDS011;46314;52.392;9.758;2024-02-14T11:04:18;5.70;;;3.90;;
60464;SDS011;46314;52.392;9.758;2024-02-14T11:06:45;4.97;;;4.45;;
60464;SDS011;46314;52.392;9.758;2024-02-14T11:09:13;4.68;;;4.28;;
60464;SDS011;46314;52.392;9.758;2024-02-14T11:11:39;5.03;;;4.53;;
60464;SDS011;46314;52.392;9.758;2024-02-14T11:14:06;4.40;;;3.88;;
60464;SDS011;46314;52.392;9.758;2024-02-14T11:16:34;5.05;;;4.47;;
60464;SDS011;46314;52.392;9.758;2024-02-14T11:19:06;5.43;;;4.93;;
60464;SDS011;46314;52.392;9.758;2024-02-14T11:21:35;4.97;;;4.47;;
60464;SDS011;46314;52.392;9.758;2024-02-14T11:24:04;7.80;;;5.00;;
60464;SDS011;46314;52.392;9.758;2024-02-14T11:26:37;4.82;;;4.32;;
60464;SDS011;46314;52.392;9.758;2024-02-14T11:29:04;5.07;;;4.60;;
60464;SDS011;46314;52.392;9.758;2024-02-14T11:31:32;5.10;;;4.70;;
60464;SDS011;46314;52.392;9.758;2024-02-14T11:34:04;5.38;;;4.60;;
60464;SDS011;46314;52.392;9.758;2024-02-14T11:36:31;5.28;;;4.63;;
60464;SDS011;46314;52.392;9.758;2024-02-14T11:38:58;4.45;;;4.15;;
60464;SDS011;46314;52.392;9.758;2024-02-14T11:41:28;4.47;;;4.07;;
60464;SDS011;46314;52.392;9.758;2024-02-14T11:43:56;5.60;;;4.50;;
60464;SDS011;46314;52.392;9.758;2024-02-14T11:46:27;4.38;;;4.00;;
60464;SDS011;46314;52.392;9.758;2024-02-14T11:48:54;5.60;;;4.97;;
60464;SDS011;46314;52.392;9.758;2024-02-14T11:51:21;4.90;;;4.50;;
60464;SDS011;46314;52.392;9.758;2024-02-14T11:53:48;7.15;;;5.07;;
60464;SDS011;46314;52.392;9.758;2024-02-14T11:56:15;9.10;;;4.97;;
60464;SDS011;46314;52.392;9.758;2024-02-14T11:58:41;4.38;;;3.97;;
60464;SDS011;46314;52.392;9.758;2024-02-14T12:01:08;6.90;;;5.95;;
60464;SDS011;46314;52.392;9.758;2024-02-14T12:03:34;5.95;;;5.28;;
60464;SDS011;46314;52.392;9.758;2024-02-14T12:06:03;5.78;;;4.97;;
60464;SDS011;46314;52.392;9.758;2024-02-14T12:08:30;6.18;;;5.57;;
60464;SDS011;46314;52.392;9.758;2024-02-14T12:10:57;5.72;;;5.07;;
60464;SDS011;46314;52.392;9.758;2024-02-14T12:13:24;5.60;;;5.10;;
60464;SDS011;46314;52.392;9.758;2024-02-14T12:15:50;5.45;;;4.80;;
60464;SDS011;46314;52.392;9.758;2024-02-14T12:18:18;6.18;;;5.60;;
60464;SDS011;46314;52.392;9.758;2024-02-14T12:20:47;6.65;;;5.82;;
60464;SDS011;46314;52.392;9.758;2024-02-14T12:23:16;6.22;;;5.63;;
60464;SDS011;46314;52.392;9.758;2024-02-14T12:25:44;5.80;;;5.30;;
60464;SDS011;46314;52.392;9.758;2024-02-14T12:28:13;6.65;;;6.05;;
60464;SDS011;46314;52.392;9.758;2024-02-14T12:30:43;7.15;;;6.55;;
60464;SDS011;46314;52.392;9.758;2024-02-14T12:33:11;7.03;;;6.32;;
60464;SDS011;46314;52.392;9.758;2024-02-14T12:35:37;7.28;;;6.57;;
60464;SDS011;46314;52.392;9.758;2024-02-14T12:38:07;7.30;;;6.20;;
60464;SDS011;46314;52.392;9.758;2024-02-14T12:40:36;6.25;;;5.65;;
60464;SDS011;46314;52.392;9.758;2024-02-14T12:43:02;7.32;;;6.55;;
60464;SDS011;46314;52.392;9.758;2024-02-14T12:45:29;7.13;;;6.43;;
60464;SDS011;46314;52.392;9.758;2024-02-14T12:47:55;7.30;;;6.60;;
60464;SDS011;46314;52.392;9.758;2024-02-14T12:50:22;8.93;;;8.00;;
60464;SDS011;46314;52.392;9.758;2024-02-14T12:52:48;11.60;;;7.22;;
60464;SDS011;46314;52.392;9.758;2024-02-14T12:55:15;8.05;;;6.88;;
60464;SDS011;46314;52.392;9.758;2024-02-14T12:57:42;7.65;;;6.65;;
60464;SDS011;46314;52.392;9.758;2024-02-14T13:00:09;7.72;;;6.85;;
60464;SDS011;46314;52.392;9.758;2024-02-14T13:02:36;7.88;;;7.00;;
60464;SDS011;46314;52.392;9.758;2024-02-14T13:05:04;8.48;;;7.03;;
60464;SDS011;46314;52.392;9.758;2024-02-14T13:07:31;7.82;;;7.10;;
60464;SDS011;46314;52.392;9.758;2024-02-14T13:09:57;8.05;;;7.35;;
60464;SDS011;46314;52.392;9.758;2024-02-14T13:12:24;7.35;;;6.60;;
60464;SDS011;46314;52.392;9.758;2024-02-14T13:14:51;7.93;;;7.13;;
60464;SDS011;46314;52.392;9.758;2024-02-14T13:17:18;7.35;;;6.75;;
60464;SDS011;46314;52.392;9.758;2024-02-14T13:19:45;8.60;;;7.43;;
60464;SDS011;46314;52.392;9.758;2024-02-14T13:22:11;8.23;;;7.43;;
60464;SDS011;46314;52.392;9.758;2024-02-14T13:24:38;8.82;;;7.57;;
60464;SDS011;46314;52.392;9.758;2024-02-14T13:27:04;8.20;;;7.40;;
60464;SDS011;46314;52.392;9.758;2024-02-14T13:29:31;8.93;;;7.47;;
60464;SDS011;46314;52.392;9.758;2024-02-14T13:31:59;9.40;;;7.80;;
60464;SDS011;46314;52.392;9.758;2024-02-14T13:34:25;7.88;;;7.18;;
60464;SDS011;46314;52.392;9.758;2024-02-14T13:36:52;8.45;;;7.57;;
60464;SDS011;46314;52.392;9.758;2024-02-14T13:39:18;8.20;;;7.38;;
60464;SDS011;46314;52.392;9.758;2024-02-14T13:41:45;9.50;;;8.30;;
60464;SDS011;46314;52.392;9.758;2024-02-14T13:44:12;7.72;;;6.93;;
60464;SDS011;46314;52.392;9.758;2024-02-14T13:46:38;7.55;;;6.75;;
60464;SDS011;46314;52.392;9.758;2024-02-14T13:49:11;10.23;;;7.30;;
60464;SDS011;46314;52.392;9.758;2024-02-14T13:51:41;10.13;;;7.57;;
60464;SDS011;46314;52.392;9.758;2024-02-14T13:54:07;8.65;;;6.82;;
60464;SDS011;46314;52.392;9.758;2024-02-14T13:56:34;7.72;;;6.93;;
60464;SDS011;46314;52.392;9.758;2024-02-14T13:59:01;9.20;;;7.85;;
60464;SDS011;46314;52.392;9.758;2024-02-14T14:01:27;9.07;;;7.00;;
60464;SDS011;46314;52.392;9.758;2024-02-14T14:03:54;6.32;;;5.72;;
60464;SDS011;46314;52.392;9.758;2024-02-14T14:06:21;5.88;;;5.38;;
60464;SDS011;46314;52.392;9.758;2024-02-14T14:08:48;5.47;;;4.97;;
60464;SDS011;46314;52.392;9.758;2024-02-14T14:11:17;7.82;;;5.57;;
60464;SDS011;46314;52.392;9.758;2024-02-14T14:13:43;6.22;;;5.63;;
60464;SDS011;46314;52.392;9.758;2024-02-14T14:16:10;4.95;;;4.55;;
60464;SDS011;46314;52.392;9.758;2024-02-14T14:18:36;4.85;;;4.43;;
60464;SDS011;46314;52.392;9.758;2024-02-14T14:21:03;5.15;;;4.75;;
60464;SDS011;46314;52.392;9.758;2024-02-14T14:23:31;5.03;;;4.47;;
60464;SDS011;46314;52.392;9.758;2024-02-14T14:25:58;4.95;;;4.00;;
60464;SDS011;46314;52.392;9.758;2024-02-14T14:28:25;5.53;;;4.22;;
60464;SDS011;46314;52.392;9.758;2024-02-14T14:30:51;4.78;;;4.32;;
60464;SDS011;46314;52.392;9.758;2024-02-14T14:33:17;5.35;;;4.82;;
60464;SDS011;46314;52.392;9.758;2024-02-14T14:35:45;5.95;;;4.35;;
60464;SDS011;46314;52.392;9.758;2024-02-14T14:38:11;5.00;;;4.57;;
60464;SDS011;46314;52.392;9.758;2024-02-14T14:40:39;5.35;;;4.30;;
60464;SDS011;46314;52.392;9.758;2024-02-14T14:43:06;5.15;;;4.03;;
60464;SDS011;46314;52.392;9.758;2024-02-14T14:45:32;4.70;;;4.20;;